Terminal Aerodrome Forecast
Issued by NWS

Home | Current Version | Previous Version | Text Only | Print | Product List | Glossary On
Versions: 1 2 3 4 5 6 7 8 9 10 11 12 13 14 15 16 17 18 19
314
FTUS41 KCAR 292325 AAA
TAFBHB
TAF AMD
KBHB 292325Z 2923/3024 13007KT P6SM SCT040
     FM300130 13007KT P6SM BKN035
     FM300300 13007KT P6SM OVC025
     FM300400 13007KT 6SM -DZ OVC015
     FM300600 13005KT 3SM -DZ BR OVC009
     FM301000 18004KT 1SM -DZ BR OVC005
     FM301400 21005KT 3SM -SHRA BR OVC008
     FM301800 21008KT P6SM BKN015=

USA.gov is the U.S. government's official web portal to all federal, state and local government web resources and services.